Página principal
METAR-TAF:

METAR-TAF

Aeroportos :

El Hierro, Espanha

latitude: 27-49N, longitude: 017-53W, altura: 32 m

Observação actual do tempo

O boletim foi feito há 26 minutos, às 21:00 UTC
Vento 16 kt de norte, variando entre nor-noroeste e nordeste
Temperatura 21°C
Humidade 73%
Pressão 1021 hPa
Visibilidade 10 km ou mais
Poucas nuvensa uma altura de 2400 ft

METAR: GCHI 132100Z AUTO 36016KT 340V040 9999 FEW024 21/16 Q1021

Hora: 22:26 (21:26 UTC)

Previsão

O boletim foi feito há 1 hora e 26 minutos, às 20:00 UTC
Previsão válida de 13 às 21 UTC a 14 às 21 UTC
Vento 18 kt de norte
Visibilidade 10 km ou mais
Nuvens dispersasa uma altura de 3000 ft
Probabilidade 30% :
Temporariamente
de 13 às 21 UTC a 14 às 14 UTC
Vento 16 kt de nor-nordeste com rajadas de 26 kt

TAF: GCHI 132000Z 1321/1421 01018KT 9999 SCT030 TX24/1414Z TN21/1406Z PROB30 TEMPO 1321/1414 02016G26KT

Observações e previsões do tempo de mais de 4000 aeroportos (mensagens METAR e TAF).

As estações disponíveis são os pontos amarelos e vermelhos sobre o mapa.

Mova o rato sobre o mapa para ver o nome da estação.

Depois clique no ponto para visualizar as observações e previsões meteorológicas.

Para alterar o mapa : clique nos botões verdes com uma cruz preta para aumentar o zoom; no botão verde com uma pitada de zoom; ou nas setas verdes para mapas adjacentes.


METAR-TAF: